createdAt,value
2019-03-21T00:02:00.809Z,-3.02
2019-03-21T00:04:31.175Z,-3.32
2019-03-21T00:07:00.688Z,-3.33
2019-03-21T00:09:30.201Z,-3.46
2019-03-21T00:12:08.998Z,-3.45
2019-03-21T00:14:52.137Z,-3.50
2019-03-21T00:17:37.713Z,-3.50
2019-03-21T00:20:14.131Z,-3.53
2019-03-21T00:22:43.692Z,-3.47
2019-03-21T00:25:17.624Z,-3.55
2019-03-21T00:27:47.129Z,-3.53
2019-03-21T00:30:27.919Z,-3.57
2019-03-21T00:33:16.795Z,-3.60
2019-03-21T00:39:10.023Z,-3.54
2019-03-21T00:41:58.860Z,-4.10
2019-03-21T00:44:28.389Z,-3.57
2019-03-21T00:46:57.891Z,-3.64
2019-03-21T00:49:27.404Z,-3.71
2019-03-21T00:51:57.073Z,-3.67
2019-03-21T00:54:26.624Z,-3.76
2019-03-21T00:57:15.454Z,-3.86
2019-03-21T00:59:55.905Z,-4.34
2019-03-21T01:02:44.746Z,-3.72
2019-03-21T01:05:27.000Z,-3.87
2019-03-21T01:08:15.899Z,-3.89
2019-03-21T01:10:58.034Z,-3.81
2019-03-21T01:13:34.983Z,-4.85
2019-03-21T01:16:04.480Z,-3.71
2019-03-21T01:18:37.341Z,-3.77
2019-03-21T01:21:06.841Z,-3.81
2019-03-21T01:23:36.370Z,-3.91
2019-03-21T01:26:09.625Z,-3.89
2019-03-21T01:28:39.143Z,-4.02
2019-03-21T01:31:08.639Z,-4.02
2019-03-21T01:33:38.140Z,-3.78
2019-03-21T01:36:08.819Z,-4.04
2019-03-21T01:38:38.326Z,-4.11
2019-03-21T01:41:18.069Z,-4.13
2019-03-21T01:43:47.579Z,-4.17
2019-03-21T01:46:24.482Z,-4.16
2019-03-21T01:48:54.000Z,-4.26
2019-03-21T01:51:23.519Z,-4.25
2019-03-21T01:53:55.165Z,-4.12
2019-03-21T01:56:25.495Z,-4.32
2019-03-21T01:58:55.004Z,-4.28
2019-03-21T02:01:24.538Z,-4.31
2019-03-21T02:03:54.110Z,-4.34
2019-03-21T02:06:23.626Z,-4.33
2019-03-21T02:08:53.125Z,-4.36
2019-03-21T02:11:22.629Z,-4.39
2019-03-21T02:13:52.158Z,-4.47
2019-03-21T02:16:21.648Z,-4.52
2019-03-21T02:18:51.154Z,-4.56
2019-03-21T02:21:21.931Z,-4.47
2019-03-21T02:23:51.454Z,-4.56
2019-03-21T02:26:21.072Z,-4.57
2019-03-21T02:28:50.571Z,-4.56
2019-03-21T02:31:20.086Z,-4.56
2019-03-21T02:33:49.592Z,-4.57
2019-03-21T02:36:19.103Z,-4.62
2019-03-21T02:38:48.641Z,-4.47
2019-03-21T02:41:18.536Z,-4.52
2019-03-21T02:43:48.034Z,-4.49
2019-03-21T02:46:18.797Z,-4.61
2019-03-21T02:48:48.366Z,-4.65
2019-03-21T02:51:17.894Z,-4.56
2019-03-21T02:53:47.380Z,-4.59
2019-03-21T02:56:24.159Z,-4.59
2019-03-21T02:58:53.734Z,-4.48
2019-03-21T03:01:43.082Z,-4.58
2019-03-21T03:07:13.365Z,-4.60
2019-03-21T03:09:42.925Z,-4.69
2019-03-21T03:12:12.626Z,-4.77
2019-03-21T03:14:42.127Z,-4.67
2019-03-21T03:17:11.619Z,-4.67
2019-03-21T03:19:41.133Z,-4.72
2019-03-21T03:22:10.636Z,-4.86
2019-03-21T03:24:40.161Z,-4.84
2019-03-21T03:27:09.682Z,-4.84
2019-03-21T03:29:39.216Z,-4.89
2019-03-21T03:32:08.733Z,-4.88
2019-03-21T03:34:38.237Z,-4.88
2019-03-21T03:37:07.758Z,-4.79
2019-03-21T03:39:37.271Z,-4.90
2019-03-21T03:42:06.777Z,-4.72
2019-03-21T03:44:36.295Z,-4.88
2019-03-21T03:47:05.843Z,-4.94
2019-03-21T03:49:35.343Z,-4.95
2019-03-21T03:52:04.884Z,-5.02
2019-03-21T03:54:35.469Z,-5.03
2019-03-21T03:57:05.076Z,-5.13
2019-03-21T03:59:34.609Z,-5.19
2019-03-21T04:02:04.173Z,-5.12
2019-03-21T04:04:33.664Z,-5.10
2019-03-21T04:07:03.209Z,-5.13
2019-03-21T04:09:32.704Z,-5.17
2019-03-21T04:12:02.358Z,-5.17
2019-03-21T04:14:31.867Z,-5.16
2019-03-21T04:17:01.391Z,-5.19
2019-03-21T04:19:30.916Z,-5.20
2019-03-21T04:22:00.445Z,-5.20
2019-03-21T04:24:30.195Z,-5.15
2019-03-21T04:26:59.897Z,-5.16
2019-03-21T04:29:29.478Z,-5.21
2019-03-21T04:31:58.998Z,-5.22
2019-03-21T04:34:28.537Z,-5.24
2019-03-21T04:36:58.089Z,-5.15
2019-03-21T04:39:27.558Z,-5.15
2019-03-21T04:41:57.142Z,-5.13
2019-03-21T04:44:26.642Z,-5.11
2019-03-21T04:46:56.160Z,-5.08
2019-03-21T04:49:25.681Z,-5.19
2019-03-21T04:51:55.226Z,-5.12
2019-03-21T04:54:24.767Z,-5.14
2019-03-21T04:56:54.283Z,-5.21
2019-03-21T05:02:44.443Z,-5.17
2019-03-21T05:05:15.175Z,-5.16
2019-03-21T05:07:44.691Z,-5.19
2019-03-21T05:10:16.789Z,-5.18
2019-03-21T05:12:46.336Z,-5.17
2019-03-21T05:15:23.263Z,-5.17
2019-03-21T05:17:57.422Z,-5.12
2019-03-21T05:20:30.193Z,-5.18
2019-03-21T05:23:00.333Z,-4.94
2019-03-21T05:25:29.836Z,-4.86
2019-03-21T05:27:59.428Z,-5.05
2019-03-21T05:30:42.703Z,-5.10
2019-03-21T05:33:12.250Z,-5.02
2019-03-21T05:35:41.841Z,-5.00
2019-03-21T05:38:51.575Z,-4.95
2019-03-21T05:41:21.151Z,-4.84
2019-03-21T05:43:57.950Z,-4.75
2019-03-21T05:46:27.786Z,-4.62
2019-03-21T05:48:57.283Z,-4.55
2019-03-21T05:51:26.784Z,-4.25
2019-03-21T05:53:56.312Z,-4.03
2019-03-21T05:56:25.831Z,-4.23
2019-03-21T05:58:55.348Z,-4.08
2019-03-21T06:01:24.890Z,-4.09
2019-03-21T06:03:54.559Z,-4.04
2019-03-21T06:06:49.667Z,-3.81
2019-03-21T06:09:22.367Z,-3.75
2019-03-21T06:11:56.900Z,-3.60
2019-03-21T06:14:26.695Z,-3.26
2019-03-21T06:16:56.211Z,0.08
2019-03-21T06:19:33.136Z,2.97
2019-03-21T06:22:25.141Z,5.11
2019-03-21T06:25:28.895Z,6.46
2019-03-21T06:27:58.597Z,8.17
2019-03-21T06:30:28.091Z,10.08
2019-03-21T06:32:57.581Z,11.68
2019-03-21T06:35:27.114Z,9.46
2019-03-21T06:37:56.629Z,10.49
2019-03-21T06:40:26.153Z,10.74
2019-03-21T06:42:55.657Z,13.12
2019-03-21T06:45:25.220Z,11.88
2019-03-21T06:47:54.733Z,12.32
2019-03-21T06:50:24.263Z,12.50
2019-03-21T06:52:54.650Z,12.60
2019-03-21T06:55:24.752Z,13.02
2019-03-21T06:57:54.259Z,13.63
2019-03-21T07:00:25.034Z,13.09
2019-03-21T07:02:54.627Z,13.58
2019-03-21T07:05:26.632Z,13.45
2019-03-21T07:07:55.563Z,13.81
2019-03-21T07:10:25.060Z,14.25
2019-03-21T07:12:54.567Z,13.14
2019-03-21T07:15:24.050Z,13.69
2019-03-21T07:17:53.604Z,13.85
2019-03-21T07:20:23.106Z,16.44
2019-03-21T07:22:52.645Z,15.37
2019-03-21T07:25:22.180Z,14.90
2019-03-21T07:27:51.665Z,14.40
2019-03-21T07:30:21.693Z,15.17
2019-03-21T07:32:51.212Z,15.81
2019-03-21T07:35:20.700Z,14.53
2019-03-21T07:37:50.207Z,15.54
2019-03-21T07:40:19.718Z,15.79
2019-03-21T07:42:49.205Z,14.74
2019-03-21T07:45:18.690Z,16.24
2019-03-21T07:47:48.196Z,15.32
2019-03-21T07:50:17.788Z,15.43
2019-03-21T07:52:47.288Z,14.52
2019-03-21T07:55:18.081Z,14.07
2019-03-21T07:57:47.605Z,13.16
2019-03-21T08:00:18.785Z,12.29
2019-03-21T08:02:48.385Z,14.02
2019-03-21T08:05:18.238Z,13.41
2019-03-21T08:07:47.766Z,13.90
2019-03-21T08:10:17.404Z,14.16
2019-03-21T08:12:46.918Z,13.56
2019-03-21T08:15:17.625Z,13.30
2019-03-21T08:17:47.193Z,15.57
2019-03-21T08:20:18.413Z,17.01
2019-03-21T08:22:47.921Z,15.55
2019-03-21T08:25:17.416Z,14.16
2019-03-21T08:27:46.963Z,15.71
2019-03-21T08:30:26.785Z,16.79
2019-03-21T08:32:56.292Z,16.62
2019-03-21T08:35:25.784Z,18.00
2019-03-21T08:37:55.295Z,13.21
2019-03-21T08:40:24.816Z,11.66
2019-03-21T08:42:54.322Z,12.26
2019-03-21T08:45:23.811Z,12.65
2019-03-21T08:47:53.350Z,14.23
2019-03-21T08:50:22.859Z,14.31
2019-03-21T08:52:52.364Z,12.42
2019-03-21T08:55:21.879Z,12.71
2019-03-21T08:57:51.394Z,14.68
2019-03-21T09:00:21.012Z,13.80
2019-03-21T09:02:50.518Z,13.79
2019-03-21T09:05:20.042Z,13.39
2019-03-21T09:07:49.577Z,14.30
2019-03-21T09:10:19.066Z,15.82
2019-03-21T09:12:48.619Z,15.82
2019-03-21T09:15:19.379Z,15.50
2019-03-21T09:17:48.896Z,16.81
2019-03-21T09:20:19.016Z,15.94
2019-03-21T09:22:48.582Z,14.41
2019-03-21T09:25:18.082Z,13.17
2019-03-21T09:27:48.014Z,15.17
2019-03-21T09:30:17.737Z,15.33
2019-03-21T09:32:47.296Z,13.45
2019-03-21T09:35:16.766Z,11.94
2019-03-21T09:37:46.301Z,12.62
2019-03-21T09:40:17.106Z,16.94
2019-03-21T09:42:46.614Z,14.80
2019-03-21T09:45:16.248Z,15.51
2019-03-21T09:47:45.780Z,17.22
2019-03-21T09:50:27.397Z,18.70
2019-03-21T09:52:56.975Z,13.32
2019-03-21T09:55:26.661Z,12.60
2019-03-21T09:57:57.416Z,14.24
2019-03-21T10:00:37.204Z,12.77
2019-03-21T10:03:07.227Z,15.64
2019-03-21T10:05:36.823Z,15.98
2019-03-21T10:08:06.599Z,16.05
2019-03-21T10:10:36.251Z,16.34
2019-03-21T10:13:06.589Z,15.76
2019-03-21T10:15:36.127Z,15.51
2019-03-21T10:18:06.049Z,14.65
2019-03-21T10:20:35.545Z,15.46
2019-03-21T10:23:05.114Z,12.65
2019-03-21T10:25:34.598Z,14.02
2019-03-21T10:28:04.261Z,14.36
2019-03-21T10:30:37.291Z,12.75
2019-03-21T10:33:10.194Z,13.62
2019-03-21T10:35:39.798Z,14.97
2019-03-21T10:38:09.443Z,14.72
2019-03-21T10:40:39.240Z,14.31
2019-03-21T10:43:10.555Z,14.01
2019-03-21T10:45:40.358Z,14.33
2019-03-21T10:48:09.857Z,13.53
2019-03-21T10:50:41.596Z,13.68
2019-03-21T10:53:11.344Z,15.47
2019-03-21T10:55:40.894Z,14.53
2019-03-21T10:58:10.491Z,14.64
2019-03-21T11:00:40.082Z,16.03
2019-03-21T11:03:09.601Z,15.57
2019-03-21T11:05:39.225Z,14.94
2019-03-21T11:08:08.784Z,13.94
2019-03-21T11:10:38.291Z,15.52
2019-03-21T11:13:07.877Z,13.99
2019-03-21T11:15:37.379Z,16.04
2019-03-21T11:18:06.998Z,15.33
2019-03-21T11:20:40.448Z,14.51
2019-03-21T11:23:10.112Z,17.83
2019-03-21T11:25:40.441Z,19.17
2019-03-21T11:28:12.137Z,16.91
2019-03-21T11:30:43.457Z,19.51
2019-03-21T11:33:13.032Z,16.00
2019-03-21T11:35:42.542Z,19.19
2019-03-21T11:38:12.112Z,15.28
2019-03-21T11:40:41.691Z,18.17
2019-03-21T11:43:11.595Z,15.15
2019-03-21T11:45:41.113Z,14.88
2019-03-21T11:48:10.635Z,14.54
2019-03-21T11:50:40.153Z,16.19
2019-03-21T11:53:09.644Z,14.90
2019-03-21T11:55:39.153Z,15.48
2019-03-21T11:58:27.996Z,15.52
2019-03-21T12:00:57.508Z,14.50
2019-03-21T12:03:27.000Z,15.11
2019-03-21T12:05:56.532Z,14.50
2019-03-21T12:08:26.049Z,18.22
2019-03-21T12:10:55.997Z,14.61
2019-03-21T12:13:25.512Z,14.30
2019-03-21T12:15:55.025Z,14.66
2019-03-21T12:18:24.515Z,14.30
2019-03-21T12:20:54.017Z,14.19
2019-03-21T12:23:24.475Z,13.79
2019-03-21T12:25:54.037Z,13.99
2019-03-21T12:28:23.512Z,17.51
2019-03-21T12:30:53.092Z,16.54
2019-03-21T12:33:22.611Z,17.62
2019-03-21T12:35:52.124Z,15.78
2019-03-21T12:38:21.611Z,14.93
2019-03-21T12:40:51.180Z,15.42
2019-03-21T12:46:41.494Z,14.61
2019-03-21T12:49:11.045Z,15.39
2019-03-21T12:51:40.554Z,15.92
2019-03-21T12:54:10.063Z,14.71
2019-03-21T12:56:39.601Z,14.14
2019-03-21T12:59:09.151Z,14.71
2019-03-21T13:01:38.701Z,14.66
2019-03-21T13:04:08.223Z,15.04
2019-03-21T13:06:37.730Z,14.94
2019-03-21T13:09:08.688Z,15.70
2019-03-21T13:11:38.224Z,14.31
2019-03-21T13:14:07.700Z,15.71
2019-03-21T13:16:37.217Z,17.77
2019-03-21T13:19:06.702Z,14.75
2019-03-21T13:21:55.573Z,18.71
2019-03-21T13:24:25.061Z,18.10
2019-03-21T13:26:54.567Z,19.24
2019-03-21T13:29:25.138Z,15.21
2019-03-21T13:31:54.744Z,14.03
2019-03-21T13:34:24.228Z,14.17
2019-03-21T13:36:53.733Z,13.73
2019-03-21T13:39:23.226Z,14.28
2019-03-21T13:41:52.737Z,14.08
2019-03-21T13:44:22.244Z,13.75
2019-03-21T13:46:51.758Z,13.89
2019-03-21T13:49:21.277Z,13.67
2019-03-21T13:51:50.782Z,13.79
2019-03-21T13:54:20.281Z,14.41
2019-03-21T13:56:49.780Z,13.54
2019-03-21T13:59:19.296Z,13.66
2019-03-21T14:01:48.838Z,13.52
2019-03-21T14:04:18.385Z,13.69
2019-03-21T14:06:47.893Z,14.24
2019-03-21T14:09:20.365Z,13.66
2019-03-21T14:11:49.931Z,13.14
2019-03-21T14:14:19.421Z,13.43
2019-03-21T14:16:50.950Z,13.14
2019-03-21T14:19:20.208Z,12.99
2019-03-21T14:21:49.715Z,13.17
2019-03-21T14:24:19.211Z,13.52
2019-03-21T14:26:48.724Z,12.72
2019-03-21T14:29:18.215Z,12.84
2019-03-21T14:31:47.724Z,13.40
2019-03-21T14:34:17.225Z,13.45
2019-03-21T14:36:46.738Z,13.54
2019-03-21T14:39:16.227Z,13.20
2019-03-21T14:41:45.709Z,12.98
2019-03-21T14:44:15.239Z,12.73
2019-03-21T14:46:44.737Z,12.76
2019-03-21T14:49:14.250Z,12.58
2019-03-21T14:51:43.774Z,12.55
2019-03-21T14:54:13.284Z,12.70
2019-03-21T14:56:42.759Z,13.09
2019-03-21T14:59:12.341Z,12.91
2019-03-21T15:01:41.819Z,12.60
2019-03-21T15:04:11.356Z,12.68
2019-03-21T15:06:40.843Z,12.49
2019-03-21T15:09:10.386Z,12.63
2019-03-21T15:11:41.167Z,12.55
2019-03-21T15:14:10.728Z,12.54
2019-03-21T15:16:40.206Z,12.49
2019-03-21T15:19:09.741Z,12.19
2019-03-21T15:21:39.226Z,12.30
2019-03-21T15:24:10.267Z,12.20
2019-03-21T15:26:39.749Z,12.09
2019-03-21T15:29:09.235Z,12.00
2019-03-21T15:31:38.756Z,11.72
2019-03-21T15:34:08.252Z,11.67
2019-03-21T15:36:39.071Z,11.78
2019-03-21T15:39:09.519Z,11.90
2019-03-21T15:41:39.308Z,12.07
2019-03-21T15:44:08.815Z,11.88
2019-03-21T15:46:38.511Z,11.75
2019-03-21T15:49:08.293Z,11.65
2019-03-21T15:51:37.769Z,11.52
2019-03-21T15:54:07.291Z,11.55
2019-03-21T15:56:36.792Z,11.19
2019-03-21T15:59:06.310Z,11.18
2019-03-21T16:01:36.841Z,11.04
2019-03-21T16:04:06.441Z,11.03
2019-03-21T16:06:35.995Z,10.96
2019-03-21T16:09:07.480Z,10.97
2019-03-21T16:11:36.963Z,10.92
2019-03-21T16:14:06.465Z,10.91
2019-03-21T16:16:36.045Z,10.92
2019-03-21T16:19:05.849Z,10.92
2019-03-21T16:21:35.333Z,10.76
2019-03-21T16:24:05.801Z,10.64
2019-03-21T16:26:36.790Z,10.71
2019-03-21T16:29:06.491Z,10.46
2019-03-21T16:31:36.031Z,10.40
2019-03-21T16:34:05.544Z,10.36
2019-03-21T16:36:35.045Z,10.27
2019-03-21T16:39:06.587Z,10.29
2019-03-21T16:41:36.131Z,10.39
2019-03-21T16:44:05.692Z,10.15
2019-03-21T16:46:35.205Z,10.01
2019-03-21T16:49:04.684Z,9.94
2019-03-21T16:52:06.516Z,9.72
2019-03-21T16:54:36.085Z,9.21
2019-03-21T16:57:05.595Z,9.57
2019-03-21T16:59:35.122Z,9.45
2019-03-21T17:02:04.665Z,9.24
2019-03-21T17:04:34.171Z,9.17
2019-03-21T17:07:03.654Z,8.95
2019-03-21T17:09:33.163Z,8.65
2019-03-21T17:12:02.671Z,8.48
2019-03-21T17:14:32.173Z,8.29
2019-03-21T17:17:01.664Z,8.15
2019-03-21T17:19:31.306Z,8.01
2019-03-21T17:22:00.792Z,7.91
2019-03-21T17:24:30.478Z,7.71
2019-03-21T17:26:59.948Z,7.53
2019-03-21T17:29:29.481Z,7.33
2019-03-21T17:31:58.991Z,7.18
2019-03-21T17:34:28.533Z,7.13
2019-03-21T17:36:58.087Z,6.89
2019-03-21T17:39:27.646Z,6.80
2019-03-21T17:41:57.141Z,6.65
2019-03-21T17:44:26.644Z,6.56
2019-03-21T17:46:56.128Z,6.61
2019-03-21T17:49:25.633Z,6.39
2019-03-21T17:51:55.126Z,6.18
2019-03-21T17:54:24.635Z,6.01
2019-03-21T17:56:55.147Z,6.02
2019-03-21T17:59:24.710Z,5.91
2019-03-21T18:01:54.462Z,5.85
2019-03-21T18:04:24.162Z,5.77
2019-03-21T18:06:53.643Z,5.63
2019-03-21T18:09:23.312Z,5.51
2019-03-21T18:11:52.848Z,5.60
2019-03-21T18:14:22.352Z,5.41
2019-03-21T18:16:53.123Z,5.23
2019-03-21T18:19:22.634Z,5.01
2019-03-21T18:21:52.199Z,4.86
2019-03-21T18:24:21.963Z,4.81
2019-03-21T18:26:51.449Z,4.66
2019-03-21T18:29:21.033Z,4.49
2019-03-21T18:31:50.533Z,4.35
2019-03-21T18:34:20.563Z,4.20
2019-03-21T18:36:50.048Z,4.07
2019-03-21T18:39:19.542Z,3.95
2019-03-21T18:41:49.081Z,3.87
2019-03-21T18:44:18.589Z,3.77
2019-03-21T18:46:48.742Z,3.65
2019-03-21T18:49:18.240Z,3.59
2019-03-21T18:51:47.764Z,3.52
2019-03-21T18:54:17.262Z,3.45
2019-03-21T18:56:46.775Z,3.33
2019-03-21T18:59:16.911Z,3.22
2019-03-21T19:01:57.688Z,3.13
2019-03-21T19:04:17.647Z,3.01
2019-03-21T19:06:47.177Z,2.98
2019-03-21T19:09:16.678Z,2.90
2019-03-21T19:11:46.184Z,2.76
2019-03-21T19:14:15.683Z,2.67
2019-03-21T19:16:45.214Z,2.65
2019-03-21T19:19:14.709Z,2.54
2019-03-21T19:21:44.224Z,2.45
2019-03-21T19:24:14.335Z,2.39
2019-03-21T19:26:43.912Z,2.35
2019-03-21T19:29:15.082Z,2.28
2019-03-21T19:31:44.722Z,2.31
2019-03-21T19:34:14.206Z,2.26
2019-03-21T19:36:43.986Z,2.16
2019-03-21T19:39:13.476Z,2.02
2019-03-21T19:41:44.619Z,1.95
2019-03-21T19:44:14.121Z,1.85
2019-03-21T19:46:43.629Z,1.78
2019-03-21T19:49:13.189Z,1.62
2019-03-21T19:51:42.706Z,1.92
2019-03-21T19:54:12.195Z,2.00
2019-03-21T19:56:41.715Z,1.77
2019-03-21T19:59:11.221Z,1.43
2019-03-21T20:01:40.742Z,1.27
2019-03-21T20:04:10.253Z,1.28
2019-03-21T20:06:39.782Z,1.14
2019-03-21T20:09:09.265Z,1.12
2019-03-21T20:11:38.930Z,1.06
2019-03-21T20:14:08.457Z,0.97
2019-03-21T20:16:57.297Z,0.91
2019-03-21T20:19:26.789Z,0.85
2019-03-21T20:21:56.338Z,0.76
2019-03-21T20:24:25.822Z,0.65
2019-03-21T20:26:55.531Z,0.53
2019-03-21T20:29:25.054Z,0.52
2019-03-21T20:31:54.562Z,0.49
2019-03-21T20:34:24.080Z,0.69
2019-03-21T20:36:53.584Z,0.68
2019-03-21T20:39:23.072Z,0.58
2019-03-21T20:41:52.581Z,0.49
2019-03-21T20:44:22.079Z,0.34
2019-03-21T20:46:51.621Z,0.22
2019-03-21T20:49:21.267Z,0.17
2019-03-21T20:51:50.802Z,0.21
2019-03-21T20:54:20.321Z,0.13
2019-03-21T20:56:49.845Z,0.12
2019-03-21T20:59:19.340Z,0.17
2019-03-21T21:01:48.838Z,0.12
2019-03-21T21:04:37.671Z,0.21
2019-03-21T21:07:07.327Z,0.12
2019-03-21T21:09:36.886Z,0.03
2019-03-21T21:12:06.440Z,-0.02
2019-03-21T21:14:36.057Z,-0.09
2019-03-21T21:17:05.573Z,-0.16
2019-03-21T21:19:35.492Z,-0.02
2019-03-21T21:22:05.081Z,-0.13
2019-03-21T21:24:34.587Z,-0.06
2019-03-21T21:27:04.470Z,-0.18
2019-03-21T21:29:33.999Z,-0.30
2019-03-21T21:32:03.525Z,-0.40
2019-03-21T21:34:33.071Z,-0.51
2019-03-21T21:37:02.603Z,-0.52
2019-03-21T21:39:32.095Z,-0.54
2019-03-21T21:42:01.610Z,-0.52
2019-03-21T21:44:31.113Z,-0.61
2019-03-21T21:47:00.636Z,-0.66
2019-03-21T21:49:30.145Z,-0.70
2019-03-21T21:51:59.665Z,-0.67
2019-03-21T21:54:29.491Z,-0.69
2019-03-21T21:56:58.989Z,-0.67
2019-03-21T21:59:28.484Z,-0.60
2019-03-21T22:01:58.007Z,-0.69
2019-03-21T22:04:27.497Z,-0.67
2019-03-21T22:06:57.528Z,-0.66
2019-03-21T22:09:27.066Z,-0.50
2019-03-21T22:11:56.562Z,-0.78
2019-03-21T22:14:26.082Z,-0.85
2019-03-21T22:16:55.606Z,-0.87
2019-03-21T22:19:25.202Z,-0.94
2019-03-21T22:21:54.694Z,-0.96
2019-03-21T22:24:24.257Z,-0.96
2019-03-21T22:26:53.745Z,-0.99
2019-03-21T22:29:23.394Z,-1.00
2019-03-21T22:31:52.903Z,-1.00
2019-03-21T22:34:22.433Z,-0.98
2019-03-21T22:36:51.930Z,-0.93
2019-03-21T22:39:21.457Z,-1.00
2019-03-21T22:41:51.706Z,-0.70
2019-03-21T22:44:21.221Z,-0.86
2019-03-21T22:46:50.737Z,-1.01
2019-03-21T22:49:20.260Z,-0.95
2019-03-21T22:52:09.106Z,-1.06
2019-03-21T22:54:38.633Z,-1.65
2019-03-21T22:57:08.136Z,-0.98
2019-03-21T22:59:37.695Z,-1.26
2019-03-21T23:02:26.555Z,-1.20
2019-03-21T23:04:56.070Z,-1.19
2019-03-21T23:07:25.670Z,-1.20
2019-03-21T23:09:55.184Z,-1.10
2019-03-21T23:12:24.686Z,-1.29
2019-03-21T23:14:54.209Z,-1.35
2019-03-21T23:17:23.711Z,-1.39
2019-03-21T23:19:54.066Z,-1.34
2019-03-21T23:22:23.563Z,-1.45
2019-03-21T23:24:53.089Z,-1.52
2019-03-21T23:27:22.591Z,-1.50
2019-03-21T23:29:52.108Z,-1.61
2019-03-21T23:32:22.378Z,-1.58
2019-03-21T23:34:51.909Z,-1.58
2019-03-21T23:37:21.438Z,-1.57
2019-03-21T23:39:51.022Z,-1.64
2019-03-21T23:42:20.548Z,-1.64
2019-03-21T23:44:50.770Z,-1.64
2019-03-21T23:47:20.267Z,-1.37
2019-03-21T23:49:49.783Z,-1.31
2019-03-21T23:52:19.283Z,-1.58
2019-03-21T23:54:48.801Z,-1.62
2019-03-21T23:57:18.299Z,-1.53
2019-03-21T23:59:47.818Z,-1.80
